Time;durP1;ratioP1;P1;durP2;ratioP2;P2;SDS_P1;SDS_P2;PMS_P1;PMS_P2;Temp;Humidity;BMP_temperature;BMP_pressure;BME280_temperature;BME280_humidity;BME280_pressure;Samples;Min_cycle;Max_cycle;Signal;HPM_P1;HPM_P2
2023/04/15 00:00:42;;;;;;;3.80;1.57;;;11.50;99.90;;;11.76;49.88;100308.81;6090008;22;96869;-47
2023/04/15 00:03:08;;;;;;;2.13;1.83;;;11.40;99.90;;;11.71;50.77;100305.50;6117102;22;97214;-51
2023/04/15 00:05:34;;;;;;;6.63;1.77;;;11.40;99.90;;;11.66;50.09;100311.00;6115514;22;97368;-50
2023/04/15 00:08:00;;;;;;;4.67;1.10;;;11.30;99.90;;;11.60;50.30;100306.00;6092515;22;97301;-49
2023/04/15 00:10:27;;;;;;;1.63;1.23;;;11.30;99.90;;;11.51;50.66;100304.63;6093464;22;97338;-47
2023/04/15 00:12:53;;;;;;;2.17;1.53;;;11.20;99.90;;;11.48;50.83;100304.78;6112547;22;101566;-51
2023/04/15 00:15:19;;;;;;;2.40;1.53;;;11.10;99.90;;;11.46;50.82;100303.97;6122703;22;97369;-50
2023/04/15 00:17:45;;;;;;;1.90;1.37;;;11.10;99.90;;;11.42;50.80;100305.03;6100572;22;98111;-48
2023/04/15 00:20:11;;;;;;;1.50;1.13;;;11.10;99.90;;;11.37;50.50;100307.03;6100584;22;97773;-47
2023/04/15 00:22:37;;;;;;;1.97;1.70;;;11.10;99.90;;;11.33;50.70;100302.81;6103726;22;118212;-51
2023/04/15 00:25:03;;;;;;;3.87;1.63;;;11.00;99.90;;;11.29;51.19;100304.75;6114686;22;108064;-50
2023/04/15 00:27:29;;;;;;;2.27;1.47;;;11.00;99.90;;;11.23;51.25;100298.84;6113275;22;97206;-47
2023/04/15 00:29:56;;;;;;;2.63;1.77;;;10.90;99.90;;;11.19;51.67;100305.19;6114108;22;97737;-50
2023/04/15 00:32:22;;;;;;;6.03;1.80;;;10.90;99.90;;;11.19;51.67;100310.47;6113505;22;97455;-48
2023/04/15 00:34:48;;;;;;;4.30;1.80;;;10.90;99.90;;;11.20;51.04;100309.56;6110601;22;97228;-50
2023/04/15 00:37:14;;;;;;;4.83;1.97;;;10.90;99.90;;;11.16;51.67;100308.84;6114354;22;97556;-49
2023/04/15 00:39:40;;;;;;;7.63;2.00;;;10.90;99.90;;;11.13;51.54;100298.38;6110216;22;97377;-51
2023/04/15 00:42:06;;;;;;;2.53;1.60;;;10.80;99.90;;;11.12;51.60;100311.66;6087079;22;103521;-53
2023/04/15 00:44:33;;;;;;;2.47;1.63;;;10.80;99.90;;;11.08;50.75;100310.09;6107969;22;97349;-50
2023/04/15 00:47:00;;;;;;;4.50;2.40;;;10.80;99.90;;;11.02;51.60;100312.06;6106438;22;97386;-51
2023/04/15 00:49:27;;;;;;;3.00;1.97;;;10.70;99.90;;;11.00;51.63;100310.44;6105928;22;96945;-48
2023/04/15 00:51:53;;;;;;;1.97;1.67;;;10.70;99.90;;;10.98;51.52;100309.59;6075619;22;101592;-48
2023/04/15 00:54:20;;;;;;;3.00;1.73;;;10.70;99.90;;;10.93;52.40;100309.81;6107457;22;96994;-48
2023/04/15 00:56:46;;;;;;;6.10;1.87;;;10.60;99.90;;;10.91;51.79;100309.03;6099899;22;97534;-49
2023/04/15 00:59:13;;;;;;;3.47;2.37;;;10.60;99.90;;;10.88;52.07;100311.78;6107457;22;98061;-48
2023/04/15 01:01:40;;;;;;;2.83;1.70;;;10.60;99.90;;;10.84;52.24;100307.53;6104431;22;97515;-51
2023/04/15 01:04:06;;;;;;;4.47;1.60;;;10.50;99.90;;;10.82;51.97;100304.13;6081544;22;98161;-47
2023/04/15 01:06:32;;;;;;;1.83;1.37;;;10.50;99.90;;;10.80;52.04;100307.75;6102912;22;97141;-49
2023/04/15 01:09:00;;;;;;;5.73;2.10;;;10.50;99.90;;;10.76;52.30;100314.09;6107576;22;97404;-49
2023/04/15 01:11:26;;;;;;;4.97;1.77;;;10.40;99.90;;;10.72;52.07;100308.09;6102627;22;97276;-49
2023/04/15 01:13:54;;;;;;;2.37;2.00;;;10.40;99.90;;;10.70;52.04;100309.91;6104086;22;98136;-50
2023/04/15 01:16:21;;;;;;;4.53;1.80;;;10.40;99.90;;;10.68;52.21;100306.47;6107712;22;97258;-53
2023/04/15 01:18:47;;;;;;;4.00;1.90;;;10.40;99.90;;;10.63;52.67;100303.19;6076635;22;104866;-46
2023/04/15 01:21:13;;;;;;;2.37;1.70;;;10.30;99.90;;;10.61;52.11;100299.75;6082510;22;98889;-49
2023/04/15 01:23:39;;;;;;;4.50;1.90;;;10.30;99.90;;;10.57;52.64;100300.81;6076619;22;98696;-49
2023/04/15 01:26:08;;;;;;;2.50;1.50;;;10.30;99.90;;;10.53;53.09;100301.84;6117370;22;97673;-50
2023/04/15 01:28:35;;;;;;;3.20;1.67;;;10.20;99.90;;;10.50;52.60;100302.81;6118569;22;97069;-50
2023/04/15 01:31:15;;;;;;;1.73;1.50;;;10.20;99.90;;;10.52;52.03;100302.75;6092554;22;97311;-46
2023/04/15 01:33:42;;;;;;;3.67;2.13;;;10.20;99.90;;;10.52;52.43;100305.41;6115961;22;97620;-51
2023/04/15 01:36:09;;;;;;;2.93;1.70;;;10.20;99.90;;;10.47;52.84;100302.09;6095405;22;97613;-48
2023/04/15 01:38:36;;;;;;;3.23;1.47;;;10.20;99.90;;;10.42;52.76;100307.56;6118402;22;97681;-52
2023/04/15 01:41:03;;;;;;;4.17;1.80;;;10.10;99.90;;;10.39;52.74;100305.88;6119379;22;97820;-46
2023/04/15 01:43:29;;;;;;;2.97;1.30;;;10.10;99.90;;;10.37;52.72;100306.88;6117649;22;97150;-52
2023/04/15 01:45:55;;;;;;;2.53;1.47;;;10.10;99.90;;;10.35;52.73;100303.44;6119698;22;97075;-50
2023/04/15 01:48:22;;;;;;;2.27;1.40;;;10.00;99.90;;;10.31;53.13;100301.88;6122314;22;97095;-49
2023/04/15 01:50:48;;;;;;;2.63;1.57;;;10.00;99.90;;;10.28;53.23;100302.84;6115618;22;97270;-46
2023/04/15 01:53:14;;;;;;;3.70;1.57;;;10.00;99.90;;;10.27;52.60;100308.16;6119683;22;97178;-47
2023/04/15 01:55:40;;;;;;;1.13;1.03;;;9.90;99.90;;;10.22;53.69;100303.06;6117613;22;96683;-49
2023/04/15 01:58:06;;;;;;;2.57;1.73;;;9.90;99.90;;;10.21;52.78;100306.63;6122623;22;97410;-48
2023/04/15 02:00:32;;;;;;;1.30;1.10;;;9.90;99.90;;;10.19;52.73;100297.03;6117250;22;97264;-48
2023/04/15 02:02:58;;;;;;;1.90;1.50;;;9.90;99.90;;;10.14;52.86;100297.22;6121272;22;97072;-49
2023/04/15 02:05:24;;;;;;;6.20;1.33;;;9.80;99.90;;;10.11;53.10;100307.88;6120808;22;97593;-51
2023/04/15 02:07:51;;;;;;;2.37;1.47;;;9.80;99.90;;;10.07;53.58;100293.09;6117733;22;97591;-47
2023/04/15 02:10:17;;;;;;;3.43;1.40;;;9.80;99.90;;;10.05;53.14;100301.06;6121015;22;97083;-47
2023/04/15 02:12:42;;;;;;;1.43;1.20;;;9.70;99.90;;;10.03;53.36;100307.34;6115597;22;97777;-47
2023/04/15 02:15:09;;;;;;;2.10;1.30;;;9.70;99.90;;;10.01;53.32;100299.50;6121275;22;107153;-48
2023/04/15 02:17:36;;;;;;;1.60;1.27;;;9.70;99.90;;;10.00;53.44;100302.19;6117993;22;97606;-47
2023/04/15 02:20:07;;;;;;;1.33;0.93;;;9.70;99.90;;;9.96;53.88;100298.78;6118301;22;97329;-49
2023/04/15 02:22:33;;;;;;;3.50;1.53;;;9.70;99.90;;;9.96;53.46;100300.56;6117083;22;97380;-47
2023/04/15 02:24:59;;;;;;;1.57;1.30;;;9.60;99.90;;;9.94;53.52;100303.25;6120662;22;97169;-45
2023/04/15 02:27:25;;;;;;;0.90;0.80;;;9.60;99.90;;;9.93;53.52;100305.97;6119946;22;97435;-48
2023/04/15 02:29:51;;;;;;;1.90;1.20;;;9.60;99.90;;;9.91;53.65;100307.78;6117839;22;97449;-50
2023/04/15 02:32:17;;;;;;;1.90;1.20;;;9.60;99.90;;;9.89;53.23;100312.28;6121851;22;103883;-48
2023/04/15 02:34:43;;;;;;;2.37;1.00;;;9.60;99.90;;;9.86;53.26;100309.75;6121171;22;97865;-51
2023/04/15 02:37:11;;;;;;;5.50;1.17;;;9.50;99.90;;;9.84;53.22;100315.94;6127581;22;97333;-50
2023/04/15 02:39:37;;;;;;;1.33;1.20;;;9.50;99.90;;;9.82;53.27;100309.00;6095921;22;99654;-51
2023/04/15 02:42:04;;;;;;;1.40;1.00;;;9.50;99.90;;;9.80;53.38;100319.59;6129097;22;97075;-52
2023/04/15 02:44:32;;;;;;;2.10;1.20;;;9.50;99.90;;;9.77;53.11;100319.72;6130982;22;96616;-53
2023/04/15 02:46:58;;;;;;;1.20;1.03;;;9.50;99.90;;;9.77;53.08;100322.34;6129543;22;96812;-51
2023/04/15 02:49:25;;;;;;;3.70;1.27;;;9.50;99.90;;;9.74;53.90;100327.75;6134983;22;97568;-48
2023/04/15 02:51:51;;;;;;;2.53;1.50;;;9.40;99.90;;;9.72;54.30;100329.56;6132572;22;96546;-50
2023/04/15 02:54:24;;;;;;;7.77;1.37;;;9.40;99.90;;;9.70;53.83;100326.16;6135840;22;96950;-51
2023/04/15 02:56:54;;;;;;;2.43;1.27;;;9.40;99.90;;;9.68;53.68;100330.59;6130903;22;96947;-48
2023/04/15 02:59:20;;;;;;;3.00;1.23;;;9.40;99.90;;;9.65;53.70;100333.34;6122814;22;96760;-49
2023/04/15 03:01:45;;;;;;;2.60;1.60;;;9.30;99.90;;;9.62;53.77;100330.81;6119667;22;97037;-53
2023/04/15 03:04:12;;;;;;;2.03;1.40;;;9.30;99.90;;;9.60;53.59;100335.28;6122128;22;104032;-49
2023/04/15 03:06:38;;;;;;;1.83;1.17;;;9.30;99.90;;;9.54;54.09;100330.22;6116468;22;97312;-51
2023/04/15 03:09:03;;;;;;;2.03;1.20;;;9.20;99.90;;;9.52;53.76;100329.44;6119764;22;96570;-46
2023/04/15 03:11:30;;;;;;;2.43;1.20;;;9.20;99.90;;;9.50;54.43;100329.50;6117730;22;106078;-56
2023/04/15 03:13:57;;;;;;;1.63;1.40;;;9.20;99.90;;;9.48;54.75;100338.38;6121351;22;97988;-48
2023/04/15 03:16:23;;;;;;;1.93;1.10;;;9.20;99.90;;;9.45;54.89;100336.72;6122137;22;97149;-47
2023/04/15 03:18:49;;;;;;;1.70;1.33;;;9.10;99.90;;;9.45;54.61;100335.84;6118469;22;99833;-48
2023/04/15 03:21:15;;;;;;;2.10;1.47;;;9.10;99.90;;;9.43;54.20;100342.94;6094741;22;97540;-46
2023/04/15 03:23:41;;;;;;;2.13;1.27;;;9.10;99.90;;;9.42;54.56;100341.22;6119051;22;97273;-49
2023/04/15 03:26:06;;;;;;;2.00;1.03;;;9.10;99.90;;;9.42;54.43;100347.34;6122336;22;97432;-46
2023/04/15 03:28:32;;;;;;;1.30;1.20;;;9.10;99.90;;;9.42;54.60;100352.63;6120252;22;111803;-49
2023/04/15 03:30:59;;;;;;;1.83;1.20;;;9.10;99.90;;;9.43;54.53;100356.13;6122490;22;97924;-48
2023/04/15 03:33:24;;;;;;;2.17;1.37;;;9.20;99.90;;;9.40;54.08;100349.19;6123228;22;97315;-48
2023/04/15 03:35:51;;;;;;;3.87;1.40;;;9.10;99.90;;;9.39;54.59;100349.22;6116849;22;97897;-50
2023/04/15 03:38:17;;;;;;;1.57;1.00;;;9.10;99.90;;;9.36;54.84;100352.81;6095222;22;97144;-48
2023/04/15 03:40:45;;;;;;;2.93;1.50;;;9.00;99.90;;;9.35;54.60;100356.38;6116419;22;98099;-49
2023/04/15 03:43:11;;;;;;;0.87;0.87;;;9.00;99.90;;;9.33;54.64;100346.81;6121913;22;96994;-49
2023/04/15 03:45:36;;;;;;;1.30;1.20;;;9.00;99.90;;;9.28;54.87;100348.75;6117177;22;102194;-47
2023/04/15 03:48:03;;;;;;;3.17;1.40;;;8.90;99.90;;;9.26;55.21;100356.72;6121435;22;106316;-48
2023/04/15 03:50:28;;;;;;;1.83;1.67;;;8.90;99.90;;;9.28;54.55;100364.56;6096750;22;96886;-48
2023/04/15 03:52:54;;;;;;;2.63;1.37;;;9.00;99.90;;;9.25;54.43;100361.09;6116661;22;106965;-51
2023/04/15 03:55:20;;;;;;;2.10;1.43;;;9.00;99.90;;;9.23;54.31;100357.66;6123085;22;97813;-47
2023/04/15 03:57:45;;;;;;;2.43;1.77;;;8.90;99.90;;;9.19;55.42;100357.81;6117722;22;97100;-48
2023/04/15 04:00:11;;;;;;;1.57;1.17;;;8.90;99.90;;;9.15;55.96;100362.34;6120981;22;97743;-47
2023/04/15 04:02:37;;;;;;;2.17;1.50;;;8.80;99.90;;;9.16;55.13;100365.81;6118029;22;96953;-46
2023/04/15 04:05:04;;;;;;;4.97;1.50;;;8.80;99.90;;;9.15;54.80;100364.97;6120536;22;97683;-48
2023/04/15 04:07:29;;;;;;;1.73;1.63;;;8.80;99.90;;;9.13;54.80;100366.78;6117416;22;96880;-48
2023/04/15 04:09:58;;;;;;;3.10;1.67;;;8.80;99.90;;;9.12;55.03;100370.34;6122203;22;97181;-46
2023/04/15 04:12:24;;;;;;;2.73;1.50;;;8.80;99.90;;;9.07;55.61;100372.25;6120441;22;97725;-49
2023/04/15 04:14:50;;;;;;;5.10;1.67;;;8.80;99.90;;;9.04;55.92;100375.00;6118510;22;97313;-49
2023/04/15 04:17:16;;;;;;;1.90;1.60;;;8.80;99.90;;;9.03;55.82;100367.16;6122097;22;97449;-50
2023/04/15 04:19:41;;;;;;;6.47;2.20;;;8.80;99.90;;;8.96;56.21;100369.13;6118112;22;104841;-49
2023/04/15 04:22:07;;;;;;;1.83;1.67;;;8.70;99.90;;;8.94;55.91;100369.16;6119968;22;101630;-51
2023/04/15 04:24:33;;;;;;;1.83;1.37;;;8.60;99.90;;;8.92;55.88;100373.63;6116162;22;108371;-45
2023/04/15 04:26:59;;;;;;;1.93;1.50;;;8.60;99.90;;;8.92;56.38;100373.63;6119400;22;97470;-49
2023/04/15 04:29:25;;;;;;;2.73;1.63;;;8.60;99.90;;;8.97;55.74;100376.13;6121950;22;97384;-51
2023/04/15 04:31:51;;;;;;;2.47;1.53;;;8.70;99.90;;;8.98;55.92;100376.97;6116448;22;97090;-52
2023/04/15 04:34:17;;;;;;;2.23;1.40;;;8.70;99.90;;;8.96;56.11;100382.25;6122102;22;97342;-50
2023/04/15 04:36:43;;;;;;;2.17;1.37;;;8.70;99.90;;;8.98;56.03;100382.25;6117268;22;97807;-50
2023/04/15 04:39:09;;;;;;;3.83;1.50;;;8.70;99.90;;;8.95;55.50;100380.56;6119639;22;97026;-46
2023/04/15 04:41:34;;;;;;;3.57;1.90;;;8.60;99.90;;;8.86;55.82;100378.25;6092688;22;97086;-48
2023/04/15 04:44:00;;;;;;;2.67;1.47;;;8.60;99.90;;;8.84;56.26;100385.34;6094072;22;97166;-46
2023/04/15 04:46:26;;;;;;;3.43;1.83;;;8.50;99.90;;;8.85;55.99;100387.03;6120889;22;97669;-47
2023/04/15 04:48:52;;;;;;;2.10;1.60;;;8.50;99.90;;;8.87;56.25;100395.75;6129776;22;97170;-50
2023/04/15 04:51:18;;;;;;;2.60;1.87;;;8.60;99.90;;;8.92;56.05;100391.19;6134695;22;97170;-47
2023/04/15 04:53:44;;;;;;;3.33;2.13;;;8.70;99.90;;;8.94;56.20;100391.97;6129680;22;97063;-47
2023/04/15 04:56:10;;;;;;;1.63;1.10;;;8.70;99.90;;;8.94;56.28;100407.75;6132016;22;97924;-46
2023/04/15 04:58:37;;;;;;;3.00;1.60;;;8.70;99.90;;;8.93;56.29;100399.03;6094160;22;99285;-48
2023/04/15 05:01:02;;;;;;;2.53;1.73;;;8.70;99.90;;;8.87;56.60;100411.53;6128438;22;96905;-49
2023/04/15 05:03:28;;;;;;;2.17;1.43;;;8.60;99.90;;;8.81;57.17;100412.56;6104499;22;97206;-46
2023/04/15 05:05:54;;;;;;;3.30;1.73;;;8.50;99.90;;;8.81;57.19;100416.97;6126266;22;99479;-48
2023/04/15 05:08:20;;;;;;;2.53;1.73;;;8.50;99.90;;;8.83;56.83;100417.81;6131812;22;97542;-49
2023/04/15 05:10:46;;;;;;;5.77;2.57;;;8.60;99.90;;;8.78;57.42;100414.44;6125830;22;97330;-49
2023/04/15 05:13:12;;;;;;;3.37;2.20;;;8.50;99.90;;;8.80;57.01;100420.50;6130143;22;97367;-48
2023/04/15 05:15:40;;;;;;;5.07;1.53;;;8.50;99.90;;;8.77;56.46;100420.59;6126127;22;97432;-51
2023/04/15 05:18:06;;;;;;;2.23;1.40;;;8.50;99.90;;;8.73;57.13;100429.50;6124908;22;97079;-51
2023/04/15 05:20:31;;;;;;;1.63;1.40;;;8.50;99.90;;;8.71;57.17;100426.94;6120439;22;97084;-49
2023/04/15 05:22:57;;;;;;;3.13;1.60;;;8.40;99.90;;;8.73;57.26;100429.50;6124456;22;96929;-51
2023/04/15 05:25:23;;;;;;;1.60;1.33;;;8.50;99.90;;;8.71;57.61;100431.34;6124532;22;96698;-47
2023/04/15 05:27:49;;;;;;;5.20;2.17;;;8.40;99.90;;;8.74;57.15;100432.09;6121545;22;97191;-49
2023/04/15 05:30:15;;;;;;;3.33;2.00;;;8.50;99.90;;;8.80;56.82;100436.28;6124171;22;97103;-48
2023/04/15 05:32:41;;;;;;;10.97;1.67;;;8.50;99.90;;;8.85;56.43;100434.38;6120206;22;97469;-49
2023/04/15 05:35:07;;;;;;;2.27;1.73;;;8.60;99.90;;;8.87;57.46;100432.56;6123822;22;97082;-47
2023/04/15 05:37:33;;;;;;;2.90;1.97;;;8.60;99.90;;;8.89;57.28;100425.47;6118878;22;97773;-47
2023/04/15 05:39:59;;;;;;;2.87;2.17;;;8.60;99.90;;;8.90;57.11;100438.59;6122168;22;97103;-46
2023/04/15 05:42:24;;;;;;;2.87;1.93;;;8.70;99.90;;;8.95;57.29;100435.78;6125413;22;97481;-49
2023/04/15 05:44:50;;;;;;;13.87;2.30;;;8.70;99.90;;;9.00;57.53;100439.16;6120631;22;97119;-51
2023/04/15 05:47:16;;;;;;;4.50;1.70;;;8.80;99.90;;;9.04;57.69;100446.03;6118657;22;97835;-47
2023/04/15 05:49:42;;;;;;;2.73;1.93;;;8.80;99.90;;;9.06;58.10;100449.47;6114055;22;97191;-46
2023/04/15 05:52:08;;;;;;;4.03;2.50;;;8.80;99.90;;;9.10;57.63;100451.06;6096451;22;97834;-48
2023/04/15 05:54:33;;;;;;;2.57;1.93;;;8.90;99.90;;;9.17;57.93;100457.88;6122709;22;96999;-48
2023/04/15 05:56:59;;;;;;;6.40;2.03;;;9.00;99.90;;;9.18;57.18;100449.06;6122428;22;97388;-49
2023/04/15 05:59:27;;;;;;;3.97;2.00;;;9.00;99.90;;;9.27;57.97;100457.59;6124030;22;96969;-46
2023/04/15 06:01:52;;;;;;;2.40;2.00;;;9.00;99.90;;;9.33;58.44;100452.09;6120946;22;97214;-50
2023/04/15 06:04:18;;;;;;;4.07;1.97;;;9.10;99.90;;;9.40;59.10;100458.88;6124430;22;97334;-46
2023/04/15 06:06:45;;;;;;;5.20;2.47;;;9.20;99.90;;;9.49;57.68;100466.47;6120948;22;97534;-49
2023/04/15 06:09:10;;;;;;;4.27;1.87;;;9.30;99.90;;;9.60;57.93;100466.97;6124310;22;97208;-51
2023/04/15 06:11:36;;;;;;;2.60;1.70;;;9.40;99.90;;;9.71;57.40;100470.09;6120396;22;96929;-48
2023/04/15 06:14:02;;;;;;;3.33;2.30;;;9.50;99.90;;;9.80;57.04;100469.75;6124128;22;101651;-48
2023/04/15 06:16:28;;;;;;;4.07;1.60;;;9.60;99.90;;;9.92;56.72;100473.72;6123275;22;97590;-50
2023/04/15 06:18:53;;;;;;;2.33;1.80;;;9.80;99.90;;;10.03;56.31;100474.19;6092152;22;97103;-47
2023/04/15 06:21:19;;;;;;;5.27;2.13;;;9.90;99.90;;;10.14;56.10;100479.09;6122804;22;96914;-46
2023/04/15 06:23:45;;;;;;;2.67;2.00;;;10.00;99.90;;;10.24;56.03;100480.47;6116162;22;97253;-50
2023/04/15 06:26:11;;;;;;;8.37;2.50;;;10.10;99.90;;;10.34;55.86;100481.88;6116538;22;97104;-49
2023/04/15 06:28:37;;;;;;;4.20;2.40;;;10.20;99.90;;;10.45;55.19;100483.25;6115868;22;97954;-52
2023/04/15 06:31:03;;;;;;;3.57;1.83;;;10.30;99.90;;;10.53;55.57;100481.16;6123595;22;97259;-49
2023/04/15 06:33:28;;;;;;;3.20;2.03;;;10.40;99.90;;;10.65;55.80;100492.13;6093679;22;99366;-50
2023/04/15 06:35:54;;;;;;;2.93;2.63;;;10.50;99.90;;;10.77;55.83;100490.78;6113261;22;97997;-51
2023/04/15 06:38:20;;;;;;;3.50;2.23;;;10.60;99.90;;;10.91;54.83;100492.88;6118250;22;97399;-48
2023/04/15 06:40:46;;;;;;;3.63;2.37;;;10.80;99.90;;;11.01;54.54;100500.38;6117487;22;97215;-48
2023/04/15 06:43:11;;;;;;;2.77;2.53;;;10.90;99.90;;;11.12;55.01;100496.44;6120994;22;97139;-50
2023/04/15 06:45:37;;;;;;;5.97;2.63;;;11.00;99.90;;;11.19;54.76;100496.13;6116933;22;106600;-52
2023/04/15 06:48:03;;;;;;;6.63;2.63;;;11.10;99.90;;;11.33;54.43;100503.50;6118991;22;97149;-49
2023/04/15 06:50:29;;;;;;;4.30;2.90;;;11.20;99.90;;;11.49;54.17;100512.50;6117982;22;99213;-60
2023/04/15 06:52:56;;;;;;;4.53;2.57;;;11.40;99.90;;;11.62;53.88;100507.56;6117637;22;97543;-48
2023/04/15 06:55:22;;;;;;;4.87;2.70;;;11.50;99.90;;;11.71;53.51;100511.59;6118153;22;97150;-48
2023/04/15 06:57:47;;;;;;;4.80;2.13;;;11.60;99.90;;;11.82;53.08;100510.25;6114539;22;97145;-47
2023/04/15 07:00:14;;;;;;;3.23;2.30;;;11.70;99.90;;;11.98;53.47;100521.00;6124128;22;97067;-49
2023/04/15 07:02:40;;;;;;;3.73;2.90;;;11.90;99.90;;;12.17;53.02;100518.44;6125239;22;97174;-50
2023/04/15 07:05:07;;;;;;;2.87;1.80;;;12.00;99.90;;;12.17;53.13;100521.94;6131589;22;97367;-50
2023/04/15 07:07:32;;;;;;;4.13;2.23;;;12.10;99.90;;;12.27;53.22;100532.09;6127004;22;97167;-50
2023/04/15 07:10:00;;;;;;;2.50;2.30;;;12.20;99.90;;;12.42;52.67;100520.81;6128055;22;97615;-49
2023/04/15 07:12:26;;;;;;;6.50;2.50;;;12.30;99.90;;;12.48;53.29;100525.84;6130941;22;97003;-50
2023/04/15 07:14:52;;;;;;;4.43;2.33;;;12.40;99.90;;;12.62;52.62;100534.00;6122227;22;111148;-50
2023/04/15 07:17:18;;;;;;;3.90;2.40;;;12.50;99.90;;;12.70;52.98;100531.84;6119978;22;97304;-50
2023/04/15 07:19:43;;;;;;;3.70;1.80;;;12.60;99.90;;;12.82;52.12;100528.63;6115731;22;97189;-48
2023/04/15 07:22:09;;;;;;;5.43;2.03;;;12.70;99.90;;;13.01;51.77;100535.72;6115670;22;106077;-50
2023/04/15 07:24:35;;;;;;;4.00;1.90;;;12.90;99.90;;;13.25;50.40;100534.56;6120109;22;97227;-50
2023/04/15 07:27:01;;;;;;;2.73;1.83;;;13.10;99.90;;;13.33;50.71;100537.72;6123070;22;106115;-52
2023/04/15 07:29:27;;;;;;;1.37;0.80;;;13.20;99.90;;;13.65;49.28;100540.56;6126784;22;96944;-50
2023/04/15 07:31:53;;;;;;;1.57;1.10;;;13.50;99.90;;;13.84;48.76;100544.00;6123473;22;97277;-51
2023/04/15 07:34:19;;;;;;;2.77;1.40;;;13.80;99.90;;;14.08;47.91;100546.34;6125509;22;97365;-51
2023/04/15 07:37:35;;;;;;;2.10;1.20;;;14.10;99.90;;;14.44;47.39;100548.88;6120090;22;97514;-47
2023/04/15 07:40:01;;;;;;;0.70;0.70;;;14.40;99.90;;;14.72;46.64;100553.56;6116514;22;97435;-51
2023/04/15 07:42:28;;;;;;;0.90;0.80;;;14.90;99.90;;;14.95;46.15;100554.97;6097496;22;97070;-50
2023/04/15 07:44:53;;;;;;;1.53;0.80;;;15.20;99.90;;;15.12;45.66;100558.38;6111387;22;97193;-48
2023/04/15 07:47:20;;;;;;;0.93;0.63;;;15.40;99.90;;;15.32;45.43;100553.75;6120212;22;97135;-49
2023/04/15 07:49:46;;;;;;;0.60;0.60;;;15.70;99.90;;;15.45;44.62;100560.06;6122273;22;96937;-49
2023/04/15 07:52:11;;;;;;;1.50;0.87;;;15.80;99.90;;;15.55;43.48;100563.91;6122356;22;98145;-49
2023/04/15 07:54:37;;;;;;;0.70;0.50;;;15.90;99.90;;;15.58;44.32;100561.09;6119691;22;97649;-47
2023/04/15 07:57:03;;;;;;;0.53;0.50;;;15.90;99.90;;;15.60;44.24;100567.19;6124391;22;97519;-47
2023/04/15 07:59:30;;;;;;;0.90;0.40;;;15.90;99.90;;;15.69;44.19;100569.34;6123638;22;99884;-48
2023/04/15 08:01:56;;;;;;;1.57;0.87;;;16.00;99.90;;;15.80;43.54;100571.38;6090083;22;103367;-51
2023/04/15 08:04:22;;;;;;;0.43;0.43;;;16.10;99.90;;;15.78;43.81;100567.94;6124284;22;97245;-51
2023/04/15 08:06:49;;;;;;;1.10;0.50;;;16.20;99.90;;;15.71;44.06;100578.06;6120449;22;97388;-48
2023/04/15 08:09:15;;;;;;;0.53;0.50;;;16.20;99.90;;;15.87;43.31;100582.50;6125420;22;96688;-51
2023/04/15 08:11:41;;;;;;;1.37;0.47;;;16.30;99.50;;;15.95;42.82;100583.78;6116312;22;97031;-51
2023/04/15 08:14:07;;;;;;;1.80;0.40;;;16.30;99.00;;;15.98;43.32;100590.72;6117653;22;97333;-50
2023/04/15 08:16:33;;;;;;;1.17;0.60;;;16.30;99.20;;;16.08;42.99;100585.72;6121077;22;97212;-48
2023/04/15 08:18:59;;;;;;;1.27;0.47;;;16.30;99.00;;;16.00;42.28;100599.44;6125087;22;97230;-49
2023/04/15 08:21:26;;;;;;;2.27;0.70;;;16.30;98.40;;;15.94;40.85;100599.81;6100945;22;97831;-55
2023/04/15 08:23:53;;;;;;;0.50;0.30;;;16.10;97.10;;;15.94;43.11;100605.16;6141704;22;97682;-54
2023/04/15 08:26:20;;;;;;;3.00;0.80;;;16.10;99.00;;;15.94;42.62;100599.81;6120502;22;97564;-56
2023/04/15 08:28:47;;;;;;;0.73;0.40;;;16.20;98.20;;;15.95;43.37;100601.53;6122065;22;96801;-54
2023/04/15 08:31:17;;;;;;;0.70;0.50;;;16.20;99.10;;;15.95;41.31;100607.72;6123648;22;98104;-56
2023/04/15 08:33:43;;;;;;;0.43;0.40;;;16.20;97.70;;;16.05;43.13;100610.66;6118808;22;97116;-55
2023/04/15 08:36:09;;;;;;;2.70;0.67;;;16.30;98.70;;;15.99;42.98;100603.06;6123836;22;97622;-57
2023/04/15 08:38:36;;;;;;;1.83;0.70;;;16.30;98.50;;;16.11;42.10;100602.34;6128508;22;96831;-54
2023/04/15 08:41:16;;;;;;;1.17;0.57;;;16.40;97.80;;;16.20;42.55;100611.56;6130183;22;96754;-53
2023/04/15 08:43:52;;;;;;;0.40;0.40;;;16.40;98.30;;;16.17;41.84;100617.94;6128822;22;97210;-56
2023/04/15 08:46:19;;;;;;;0.60;0.60;;;16.40;98.00;;;16.05;40.82;100629.28;6123917;22;97367;-57
2023/04/15 08:48:47;;;;;;;0.90;0.70;;;16.20;97.10;;;16.07;42.60;100627.41;6115461;22;96779;-52
2023/04/15 08:51:15;;;;;;;2.03;1.13;;;16.20;98.10;;;16.07;41.76;100622.09;6118454;22;97137;-53
2023/04/15 08:53:46;;;;;;;0.73;0.50;;;16.30;97.30;;;16.15;42.71;100624.28;6105148;22;97652;-54
2023/04/15 08:56:15;;;;;;;0.20;0.20;;;16.30;98.20;;;16.04;43.17;100630.25;6109167;22;97430;-56
2023/04/15 08:58:45;;;;;;;0.93;0.40;;;16.30;98.30;;;16.13;42.28;100635.03;6106720;22;97468;-53
2023/04/15 09:01:12;;;;;;;1.00;0.47;;;16.30;98.10;;;16.13;42.47;100631.50;6107123;22;97185;-52
2023/04/15 09:03:39;;;;;;;1.10;0.60;;;16.40;97.80;;;16.22;41.83;100631.84;6098714;22;97032;-53
2023/04/15 09:06:05;;;;;;;0.90;0.60;;;16.40;97.30;;;16.13;42.22;100637.69;6102927;22;97110;-54
2023/04/15 09:08:35;;;;;;;0.57;0.40;;;16.30;97.40;;;16.13;42.42;100637.69;6103914;22;97124;-54
2023/04/15 09:11:02;;;;;;;1.40;0.60;;;16.30;97.90;;;16.12;42.54;100635.97;6101209;22;98680;-54
2023/04/15 09:13:29;;;;;;;0.40;0.37;;;16.30;97.90;;;16.19;42.47;100637.31;6105430;22;97423;-52
2023/04/15 09:15:57;;;;;;;1.10;0.50;;;16.30;97.90;;;16.16;42.66;100642.81;6103700;22;96524;-56
2023/04/15 09:18:32;;;;;;;0.40;0.20;;;16.40;97.90;;;16.22;42.58;100642.47;6106681;22;96889;-56
2023/04/15 09:21:16;;;;;;;1.13;0.50;;;16.40;97.80;;;16.36;40.85;100649.66;6104297;22;101455;-52
2023/04/15 09:23:59;;;;;;;0.60;0.50;;;16.50;96.50;;;16.29;41.48;100656.28;6133749;22;97162;-56
2023/04/15 09:26:37;;;;;;;0.53;0.50;;;16.50;96.40;;;16.15;41.08;100654.41;6111140;22;99296;-52
2023/04/15 09:29:12;;;;;;;0.53;0.30;;;16.20;96.70;;;16.17;42.68;100662.31;6123899;22;96994;-55
2023/04/15 09:31:39;;;;;;;0.70;0.50;;;16.20;98.10;;;16.03;42.56;100647.16;6138319;22;97402;-56
2023/04/15 09:34:06;;;;;;;1.37;0.80;;;16.30;97.40;;;16.07;41.16;100654.03;6115586;22;97905;-52
2023/04/15 09:36:46;;;;;;;1.10;0.70;;;16.20;96.80;;;16.07;41.78;100667.34;6105311;22;97401;-50
2023/04/15 09:39:12;;;;;;;0.73;0.33;;;16.20;97.30;;;16.03;42.68;100660.44;6137459;22;97510;-53
2023/04/15 09:41:39;;;;;;;0.70;0.40;;;16.10;98.00;;;16.00;43.27;100663.28;6137194;22;96703;-55
2023/04/15 09:44:06;;;;;;;1.53;0.40;;;16.20;98.20;;;16.07;43.17;100664.66;6142077;22;98473;-53
2023/04/15 09:46:45;;;;;;;0.40;0.30;;;16.30;98.00;;;16.04;43.16;100670.16;6140079;22;96846;-55
2023/04/15 09:49:12;;;;;;;0.30;0.30;;;16.30;98.10;;;16.02;42.99;100670.25;6144964;22;97364;-52
2023/04/15 09:51:38;;;;;;;1.60;0.97;;;16.30;98.00;;;16.18;42.46;100672.00;6107811;22;99468;-54
2023/04/15 09:54:04;;;;;;;1.53;0.83;;;16.40;97.60;;;16.08;42.64;100679.69;6139863;22;98218;-54
2023/04/15 09:56:41;;;;;;;2.03;1.10;;;16.30;97.90;;;16.20;42.49;100681.63;6085183;22;97972;-56
2023/04/15 09:59:09;;;;;;;0.80;0.53;;;16.30;97.90;;;16.17;42.57;100681.78;6137525;22;97458;-55
2023/04/15 10:01:36;;;;;;;1.67;0.93;;;16.30;97.90;;;16.11;42.61;100679.50;6132642;22;97431;-54
2023/04/15 10:04:05;;;;;;;0.73;0.57;;;16.30;98.00;;;16.11;42.62;100687.50;6135481;22;97424;-53
2023/04/15 10:06:31;;;;;;;1.43;0.50;;;16.30;98.00;;;16.06;42.99;100700.22;6131980;22;97367;-59
2023/04/15 10:08:59;;;;;;;1.63;0.50;;;16.20;98.20;;;16.02;42.65;100704.81;6106192;22;97870;-46
2023/04/15 10:11:28;;;;;;;1.13;0.30;;;16.20;97.80;;;16.00;43.31;100703.22;6138615;22;98066;-48
2023/04/15 10:13:56;;;;;;;0.50;0.40;;;16.20;98.30;;;16.04;43.10;100707.41;6133757;22;97119;-47
2023/04/15 10:16:28;;;;;;;0.50;0.50;;;16.20;98.20;;;16.01;43.30;100712.91;6137539;22;97304;-46